sensor_id;sensor_type;location;lat;lon;timestamp;P1;durP1;ratioP1;P2;durP2;ratioP2
33840;SDS011;20142;28.494;-16.312;2023-03-12T00:04:09;6.15;;;1.77;;
33840;SDS011;20142;28.494;-16.312;2023-03-12T00:09:10;4.70;;;1.65;;
33840;SDS011;20142;28.494;-16.312;2023-03-12T00:14:12;7.55;;;1.77;;
33840;SDS011;20142;28.494;-16.312;2023-03-12T00:19:14;4.90;;;1.50;;
33840;SDS011;20142;28.494;-16.312;2023-03-12T00:24:16;3.00;;;1.63;;
33840;SDS011;20142;28.494;-16.312;2023-03-12T00:29:18;4.80;;;1.85;;
33840;SDS011;20142;28.494;-16.312;2023-03-12T00:34:19;6.90;;;1.50;;
33840;SDS011;20142;28.494;-16.312;2023-03-12T00:39:21;3.47;;;1.60;;
33840;SDS011;20142;28.494;-16.312;2023-03-12T00:44:23;7.32;;;1.52;;
33840;SDS011;20142;28.494;-16.312;2023-03-12T00:49:25;3.20;;;1.40;;
33840;SDS011;20142;28.494;-16.312;2023-03-12T00:54:26;5.88;;;1.40;;
33840;SDS011;20142;28.494;-16.312;2023-03-12T00:59:28;5.07;;;1.70;;
33840;SDS011;20142;28.494;-16.312;2023-03-12T01:04:30;2.38;;;1.13;;
33840;SDS011;20142;28.494;-16.312;2023-03-12T01:09:31;4.15;;;1.30;;
33840;SDS011;20142;28.494;-16.312;2023-03-12T01:14:33;7.32;;;1.48;;
33840;SDS011;20142;28.494;-16.312;2023-03-12T01:19:35;3.90;;;1.30;;
33840;SDS011;20142;28.494;-16.312;2023-03-12T01:24:36;3.22;;;1.30;;
33840;SDS011;20142;28.494;-16.312;2023-03-12T01:29:38;1.83;;;1.20;;
33840;SDS011;20142;28.494;-16.312;2023-03-12T01:34:39;2.92;;;1.23;;
33840;SDS011;20142;28.494;-16.312;2023-03-12T01:39:41;2.35;;;1.23;;
33840;SDS011;20142;28.494;-16.312;2023-03-12T01:44:57;1.90;;;1.30;;
33840;SDS011;20142;28.494;-16.312;2023-03-12T01:50:02;3.33;;;1.00;;
33840;SDS011;20142;28.494;-16.312;2023-03-12T01:55:08;2.25;;;0.95;;
33840;SDS011;20142;28.494;-16.312;2023-03-12T02:00:14;1.38;;;1.10;;
33840;SDS011;20142;28.494;-16.312;2023-03-12T02:05:24;1.98;;;1.10;;
33840;SDS011;20142;28.494;-16.312;2023-03-12T02:10:47;4.38;;;1.42;;
33840;SDS011;20142;28.494;-16.312;2023-03-12T02:15:50;2.75;;;1.13;;
33840;SDS011;20142;28.494;-16.312;2023-03-12T02:21:03;1.63;;;1.02;;
33840;SDS011;20142;28.494;-16.312;2023-03-12T02:31:36;2.38;;;1.20;;
33840;SDS011;20142;28.494;-16.312;2023-03-12T02:36:44;2.00;;;1.10;;
33840;SDS011;20142;28.494;-16.312;2023-03-12T02:41:50;8.15;;;1.15;;
33840;SDS011;20142;28.494;-16.312;2023-03-12T02:46:56;3.85;;;1.40;;
33840;SDS011;20142;28.494;-16.312;2023-03-12T02:57:02;3.63;;;1.10;;
33840;SDS011;20142;28.494;-16.312;2023-03-12T03:02:04;2.45;;;1.08;;
33840;SDS011;20142;28.494;-16.312;2023-03-12T03:07:06;5.80;;;1.50;;
33840;SDS011;20142;28.494;-16.312;2023-03-12T03:12:08;4.05;;;1.25;;
33840;SDS011;20142;28.494;-16.312;2023-03-12T03:17:10;4.65;;;1.50;;
33840;SDS011;20142;28.494;-16.312;2023-03-12T03:22:11;3.65;;;1.50;;
33840;SDS011;20142;28.494;-16.312;2023-03-12T03:27:13;3.45;;;0.90;;
33840;SDS011;20142;28.494;-16.312;2023-03-12T03:32:15;6.45;;;1.20;;
33840;SDS011;20142;28.494;-16.312;2023-03-12T03:37:17;3.00;;;1.10;;
33840;SDS011;20142;28.494;-16.312;2023-03-12T03:42:19;2.78;;;1.10;;
33840;SDS011;20142;28.494;-16.312;2023-03-12T03:47:20;4.55;;;1.30;;
33840;SDS011;20142;28.494;-16.312;2023-03-12T03:52:22;2.70;;;1.13;;
33840;SDS011;20142;28.494;-16.312;2023-03-12T03:57:24;3.80;;;0.88;;
33840;SDS011;20142;28.494;-16.312;2023-03-12T04:02:27;3.65;;;1.10;;
33840;SDS011;20142;28.494;-16.312;2023-03-12T04:07:28;2.20;;;1.00;;
33840;SDS011;20142;28.494;-16.312;2023-03-12T04:12:30;2.97;;;1.20;;
33840;SDS011;20142;28.494;-16.312;2023-03-12T04:17:32;2.15;;;0.98;;
33840;SDS011;20142;28.494;-16.312;2023-03-12T04:22:34;9.65;;;3.38;;
33840;SDS011;20142;28.494;-16.312;2023-03-12T04:27:36;6.10;;;1.55;;
33840;SDS011;20142;28.494;-16.312;2023-03-12T04:32:38;4.70;;;0.93;;
33840;SDS011;20142;28.494;-16.312;2023-03-12T04:37:39;1.75;;;1.00;;
33840;SDS011;20142;28.494;-16.312;2023-03-12T04:42:41;2.80;;;1.05;;
33840;SDS011;20142;28.494;-16.312;2023-03-12T04:47:43;3.30;;;1.52;;
33840;SDS011;20142;28.494;-16.312;2023-03-12T04:52:44;3.38;;;1.23;;
33840;SDS011;20142;28.494;-16.312;2023-03-12T04:57:46;2.10;;;0.90;;
33840;SDS011;20142;28.494;-16.312;2023-03-12T05:02:48;2.88;;;1.23;;
33840;SDS011;20142;28.494;-16.312;2023-03-12T05:07:50;1.95;;;1.42;;
33840;SDS011;20142;28.494;-16.312;2023-03-12T05:12:52;3.03;;;1.10;;
33840;SDS011;20142;28.494;-16.312;2023-03-12T05:17:53;4.78;;;1.10;;
33840;SDS011;20142;28.494;-16.312;2023-03-12T05:22:55;1.90;;;0.93;;
33840;SDS011;20142;28.494;-16.312;2023-03-12T05:27:57;3.83;;;1.15;;
33840;SDS011;20142;28.494;-16.312;2023-03-12T05:32:58;1.50;;;1.08;;
33840;SDS011;20142;28.494;-16.312;2023-03-12T05:38:00;4.70;;;1.20;;
33840;SDS011;20142;28.494;-16.312;2023-03-12T05:43:02;3.47;;;1.20;;
33840;SDS011;20142;28.494;-16.312;2023-03-12T05:48:04;3.30;;;1.05;;
33840;SDS011;20142;28.494;-16.312;2023-03-12T05:53:06;4.22;;;1.30;;
33840;SDS011;20142;28.494;-16.312;2023-03-12T05:58:08;4.45;;;1.00;;
33840;SDS011;20142;28.494;-16.312;2023-03-12T06:03:10;1.48;;;0.88;;
33840;SDS011;20142;28.494;-16.312;2023-03-12T06:08:12;4.25;;;1.20;;
33840;SDS011;20142;28.494;-16.312;2023-03-12T06:13:14;3.75;;;1.10;;
33840;SDS011;20142;28.494;-16.312;2023-03-12T06:18:15;3.40;;;1.17;;
33840;SDS011;20142;28.494;-16.312;2023-03-12T06:23:17;2.45;;;1.25;;
33840;SDS011;20142;28.494;-16.312;2023-03-12T06:28:19;3.15;;;1.05;;
33840;SDS011;20142;28.494;-16.312;2023-03-12T06:33:20;8.88;;;1.23;;
33840;SDS011;20142;28.494;-16.312;2023-03-12T06:38:22;2.58;;;1.13;;
33840;SDS011;20142;28.494;-16.312;2023-03-12T06:43:26;3.25;;;1.40;;
33840;SDS011;20142;28.494;-16.312;2023-03-12T06:48:30;3.67;;;1.08;;
33840;SDS011;20142;28.494;-16.312;2023-03-12T06:53:36;4.28;;;1.10;;
33840;SDS011;20142;28.494;-16.312;2023-03-12T06:58:38;3.38;;;1.20;;
33840;SDS011;20142;28.494;-16.312;2023-03-12T07:03:40;4.40;;;1.08;;
33840;SDS011;20142;28.494;-16.312;2023-03-12T07:08:42;6.88;;;1.60;;
33840;SDS011;20142;28.494;-16.312;2023-03-12T07:13:44;5.78;;;1.35;;
33840;SDS011;20142;28.494;-16.312;2023-03-12T07:18:45;3.95;;;1.35;;
33840;SDS011;20142;28.494;-16.312;2023-03-12T07:23:47;7.40;;;1.55;;
33840;SDS011;20142;28.494;-16.312;2023-03-12T07:28:50;3.78;;;1.50;;
33840;SDS011;20142;28.494;-16.312;2023-03-12T07:33:52;3.28;;;1.38;;
33840;SDS011;20142;28.494;-16.312;2023-03-12T07:38:53;4.25;;;1.50;;
33840;SDS011;20142;28.494;-16.312;2023-03-12T07:43:55;9.95;;;1.40;;
33840;SDS011;20142;28.494;-16.312;2023-03-12T07:48:57;4.72;;;1.75;;
33840;SDS011;20142;28.494;-16.312;2023-03-12T07:53:58;11.23;;;2.10;;
33840;SDS011;20142;28.494;-16.312;2023-03-12T07:59:00;4.57;;;1.30;;
33840;SDS011;20142;28.494;-16.312;2023-03-12T08:04:02;7.28;;;1.70;;
33840;SDS011;20142;28.494;-16.312;2023-03-12T08:09:03;6.45;;;1.45;;
33840;SDS011;20142;28.494;-16.312;2023-03-12T08:14:06;5.45;;;1.40;;
33840;SDS011;20142;28.494;-16.312;2023-03-12T08:19:08;6.50;;;2.13;;
33840;SDS011;20142;28.494;-16.312;2023-03-12T08:24:09;5.30;;;1.60;;
33840;SDS011;20142;28.494;-16.312;2023-03-12T08:29:11;5.97;;;2.00;;
33840;SDS011;20142;28.494;-16.312;2023-03-12T08:34:13;9.65;;;2.33;;
33840;SDS011;20142;28.494;-16.312;2023-03-12T08:39:14;6.35;;;1.38;;
33840;SDS011;20142;28.494;-16.312;2023-03-12T08:44:16;7.10;;;1.50;;
33840;SDS011;20142;28.494;-16.312;2023-03-12T08:49:18;10.95;;;1.90;;
33840;SDS011;20142;28.494;-16.312;2023-03-12T08:54:21;8.88;;;2.60;;
33840;SDS011;20142;28.494;-16.312;2023-03-12T08:59:23;4.80;;;1.75;;
33840;SDS011;20142;28.494;-16.312;2023-03-12T09:04:24;9.55;;;1.70;;
33840;SDS011;20142;28.494;-16.312;2023-03-12T09:09:26;8.27;;;1.60;;
33840;SDS011;20142;28.494;-16.312;2023-03-12T09:14:28;4.88;;;1.33;;
33840;SDS011;20142;28.494;-16.312;2023-03-12T09:19:29;3.38;;;1.42;;
33840;SDS011;20142;28.494;-16.312;2023-03-12T09:24:31;3.47;;;1.30;;
33840;SDS011;20142;28.494;-16.312;2023-03-12T09:29:33;5.60;;;1.50;;
33840;SDS011;20142;28.494;-16.312;2023-03-12T09:34:36;6.85;;;1.45;;
33840;SDS011;20142;28.494;-16.312;2023-03-12T09:39:38;4.38;;;1.00;;
33840;SDS011;20142;28.494;-16.312;2023-03-12T09:44:40;8.35;;;1.40;;
33840;SDS011;20142;28.494;-16.312;2023-03-12T09:49:45;6.43;;;1.33;;
33840;SDS011;20142;28.494;-16.312;2023-03-12T10:00:18;18.80;;;4.10;;
33840;SDS011;20142;28.494;-16.312;2023-03-12T10:05:35;4.85;;;1.00;;
33840;SDS011;20142;28.494;-16.312;2023-03-12T10:10:51;3.55;;;1.08;;
33840;SDS011;20142;28.494;-16.312;2023-03-12T10:21:34;6.95;;;1.45;;
33840;SDS011;20142;28.494;-16.312;2023-03-12T10:26:51;8.88;;;1.35;;
33840;SDS011;20142;28.494;-16.312;2023-03-12T10:31:58;5.88;;;1.23;;
33840;SDS011;20142;28.494;-16.312;2023-03-12T10:42:45;5.80;;;1.33;;
33840;SDS011;20142;28.494;-16.312;2023-03-12T10:47:51;5.38;;;0.98;;
33840;SDS011;20142;28.494;-16.312;2023-03-12T10:58:33;9.48;;;1.50;;
33840;SDS011;20142;28.494;-16.312;2023-03-12T11:03:38;2.90;;;1.15;;
33840;SDS011;20142;28.494;-16.312;2023-03-12T11:08:40;5.00;;;1.30;;
33840;SDS011;20142;28.494;-16.312;2023-03-12T11:13:42;7.32;;;1.50;;
33840;SDS011;20142;28.494;-16.312;2023-03-12T11:19:24;5.20;;;1.42;;
33840;SDS011;20142;28.494;-16.312;2023-03-12T11:24:14;8.88;;;1.65;;
33840;SDS011;20142;28.494;-16.312;2023-03-12T11:29:20;4.72;;;1.15;;
33840;SDS011;20142;28.494;-16.312;2023-03-12T11:34:34;5.25;;;1.90;;
33840;SDS011;20142;28.494;-16.312;2023-03-12T11:39:59;6.72;;;1.25;;
33840;SDS011;20142;28.494;-16.312;2023-03-12T11:51:43;8.52;;;1.92;;
33840;SDS011;20142;28.494;-16.312;2023-03-12T11:56:41;10.80;;;2.08;;
33840;SDS011;20142;28.494;-16.312;2023-03-12T12:07:10;5.97;;;1.20;;
33840;SDS011;20142;28.494;-16.312;2023-03-12T12:34:43;8.40;;;1.55;;
33840;SDS011;20142;28.494;-16.312;2023-03-12T12:40:28;5.13;;;2.00;;
33840;SDS011;20142;28.494;-16.312;2023-03-12T12:45:38;3.25;;;1.25;;
33840;SDS011;20142;28.494;-16.312;2023-03-12T12:50:42;2.65;;;1.25;;
33840;SDS011;20142;28.494;-16.312;2023-03-12T13:01:14;4.53;;;1.27;;
33840;SDS011;20142;28.494;-16.312;2023-03-12T13:06:17;5.10;;;1.27;;
33840;SDS011;20142;28.494;-16.312;2023-03-12T13:16:43;6.18;;;1.27;;
33840;SDS011;20142;28.494;-16.312;2023-03-12T13:33:19;7.15;;;1.77;;
33840;SDS011;20142;28.494;-16.312;2023-03-12T13:38:04;7.45;;;1.85;;
33840;SDS011;20142;28.494;-16.312;2023-03-12T13:48:45;7.25;;;2.47;;
33840;SDS011;20142;28.494;-16.312;2023-03-12T13:53:51;5.78;;;2.03;;
33840;SDS011;20142;28.494;-16.312;2023-03-12T13:59:02;8.00;;;2.45;;
33840;SDS011;20142;28.494;-16.312;2023-03-12T14:04:29;6.43;;;1.88;;
33840;SDS011;20142;28.494;-16.312;2023-03-12T14:20:04;6.22;;;2.13;;
33840;SDS011;20142;28.494;-16.312;2023-03-12T14:30:42;11.90;;;2.00;;
33840;SDS011;20142;28.494;-16.312;2023-03-12T14:36:06;10.05;;;2.17;;
33840;SDS011;20142;28.494;-16.312;2023-03-12T14:41:23;7.05;;;2.15;;
33840;SDS011;20142;28.494;-16.312;2023-03-12T14:46:30;7.90;;;2.50;;
33840;SDS011;20142;28.494;-16.312;2023-03-12T14:51:34;7.97;;;1.75;;
33840;SDS011;20142;28.494;-16.312;2023-03-12T14:56:36;5.38;;;1.98;;
33840;SDS011;20142;28.494;-16.312;2023-03-12T15:01:44;5.30;;;1.87;;
33840;SDS011;20142;28.494;-16.312;2023-03-12T15:06:48;8.55;;;2.25;;
33840;SDS011;20142;28.494;-16.312;2023-03-12T15:12:06;7.05;;;2.25;;
33840;SDS011;20142;28.494;-16.312;2023-03-12T15:17:19;6.97;;;1.70;;
33840;SDS011;20142;28.494;-16.312;2023-03-12T15:22:24;16.75;;;4.93;;
33840;SDS011;20142;28.494;-16.312;2023-03-12T15:27:30;16.17;;;4.72;;
33840;SDS011;20142;28.494;-16.312;2023-03-12T15:32:35;10.85;;;3.85;;
33840;SDS011;20142;28.494;-16.312;2023-03-12T15:37:37;10.23;;;3.13;;
33840;SDS011;20142;28.494;-16.312;2023-03-12T15:42:40;9.80;;;2.58;;
33840;SDS011;20142;28.494;-16.312;2023-03-12T15:47:46;12.52;;;2.38;;
33840;SDS011;20142;28.494;-16.312;2023-03-12T15:52:59;5.05;;;1.80;;
33840;SDS011;20142;28.494;-16.312;2023-03-12T15:58:33;4.50;;;1.63;;
33840;SDS011;20142;28.494;-16.312;2023-03-12T16:03:40;11.23;;;3.53;;
33840;SDS011;20142;28.494;-16.312;2023-03-12T16:13:50;16.77;;;4.60;;
33840;SDS011;20142;28.494;-16.312;2023-03-12T16:19:01;12.45;;;3.55;;
33840;SDS011;20142;28.494;-16.312;2023-03-12T16:24:03;12.32;;;4.10;;
33840;SDS011;20142;28.494;-16.312;2023-03-12T16:29:05;10.13;;;3.60;;
33840;SDS011;20142;28.494;-16.312;2023-03-12T16:34:10;14.45;;;4.03;;
33840;SDS011;20142;28.494;-16.312;2023-03-12T16:39:12;12.10;;;3.25;;
33840;SDS011;20142;28.494;-16.312;2023-03-12T16:44:18;12.38;;;3.17;;
33840;SDS011;20142;28.494;-16.312;2023-03-12T16:49:21;10.70;;;2.72;;
33840;SDS011;20142;28.494;-16.312;2023-03-12T16:54:22;11.85;;;3.70;;
33840;SDS011;20142;28.494;-16.312;2023-03-12T16:59:25;13.98;;;4.10;;
33840;SDS011;20142;28.494;-16.312;2023-03-12T17:04:31;13.18;;;2.78;;
33840;SDS011;20142;28.494;-16.312;2023-03-12T17:09:33;12.10;;;3.70;;
33840;SDS011;20142;28.494;-16.312;2023-03-12T17:14:34;10.75;;;3.17;;
33840;SDS011;20142;28.494;-16.312;2023-03-12T17:19:37;15.25;;;3.70;;
33840;SDS011;20142;28.494;-16.312;2023-03-12T17:24:38;13.18;;;3.67;;
33840;SDS011;20142;28.494;-16.312;2023-03-12T17:29:41;9.95;;;3.15;;
33840;SDS011;20142;28.494;-16.312;2023-03-12T17:34:42;12.20;;;3.70;;
33840;SDS011;20142;28.494;-16.312;2023-03-12T17:39:44;17.05;;;4.90;;
33840;SDS011;20142;28.494;-16.312;2023-03-12T17:44:47;14.35;;;4.47;;
33840;SDS011;20142;28.494;-16.312;2023-03-12T17:49:49;13.80;;;4.85;;
33840;SDS011;20142;28.494;-16.312;2023-03-12T17:54:51;12.75;;;3.88;;
33840;SDS011;20142;28.494;-16.312;2023-03-12T17:59:52;14.48;;;4.18;;
33840;SDS011;20142;28.494;-16.312;2023-03-12T18:04:54;24.33;;;5.90;;
33840;SDS011;20142;28.494;-16.312;2023-03-12T18:09:56;30.02;;;7.00;;
